createdAt,value
2022-12-01T00:02:10.053Z,26.77
2022-12-01T00:05:14.602Z,27.30
2022-12-01T00:08:19.709Z,22.43
2022-12-01T00:11:22.750Z,23.42
2022-12-01T00:14:26.536Z,20.12
2022-12-01T00:17:30.188Z,21.58
2022-12-01T00:20:35.088Z,24.73
2022-12-01T00:23:39.382Z,23.17
2022-12-01T00:26:42.518Z,20.95
2022-12-01T00:29:47.024Z,22.92
2022-12-01T00:32:50.521Z,25.15
2022-12-01T00:36:00.563Z,18.60
2022-12-01T00:39:03.423Z,20.63
2022-12-01T00:42:12.881Z,20.35
2022-12-01T00:45:16.108Z,22.23
2022-12-01T00:48:19.240Z,19.02
2022-12-01T00:51:21.698Z,20.63
2022-12-01T00:54:25.025Z,23.00
2022-12-01T00:57:27.777Z,21.60
2022-12-01T01:00:31.411Z,19.42
2022-12-01T01:03:34.776Z,22.25
2022-12-01T01:06:37.674Z,19.63
2022-12-01T01:09:40.399Z,20.50
2022-12-01T01:12:43.573Z,19.90
2022-12-01T01:15:58.291Z,23.83
2022-12-01T01:19:01.853Z,25.55
2022-12-01T01:22:04.489Z,21.60
2022-12-01T01:25:08.160Z,20.65
2022-12-01T01:28:11.516Z,22.92
2022-12-01T01:31:20.450Z,23.45
2022-12-01T01:34:22.962Z,22.75
2022-12-01T01:37:26.940Z,23.43
2022-12-01T01:40:29.419Z,23.43
2022-12-01T01:43:42.071Z,24.05
2022-12-01T01:46:45.121Z,21.85
2022-12-01T01:49:49.073Z,21.30
2022-12-01T01:52:57.942Z,20.50
2022-12-01T01:56:03.219Z,19.65
2022-12-01T01:59:06.094Z,20.62
2022-12-01T02:02:10.710Z,22.90
2022-12-01T02:05:21.451Z,20.20
2022-12-01T02:08:24.335Z,19.97
2022-12-01T02:11:48.630Z,20.62
2022-12-01T02:15:09.708Z,20.20
2022-12-01T02:18:51.607Z,21.08
2022-12-01T02:22:05.881Z,21.20
2022-12-01T02:25:48.336Z,21.30
2022-12-01T02:29:47.691Z,25.17
2022-12-01T02:33:09.008Z,22.52
2022-12-01T02:36:17.477Z,20.58
2022-12-01T02:39:39.141Z,21.80
2022-12-01T02:42:53.420Z,22.57
2022-12-01T02:46:07.776Z,22.45
2022-12-01T02:49:16.078Z,22.58
2022-12-01T02:52:23.144Z,19.25
2022-12-01T02:55:25.630Z,27.42
2022-12-01T02:58:28.576Z,22.97
2022-12-01T03:01:32.349Z,22.92
2022-12-01T03:04:58.922Z,22.42
2022-12-01T03:08:29.624Z,22.48
2022-12-01T03:11:50.868Z,24.92
2022-12-01T03:15:02.123Z,18.33
2022-12-01T03:18:27.120Z,20.90
2022-12-01T03:21:56.158Z,23.48
2022-12-01T03:25:01.568Z,21.90
2022-12-01T03:28:22.201Z,21.92
2022-12-01T03:31:35.908Z,20.43
2022-12-01T03:34:58.784Z,23.90
2022-12-01T03:38:06.875Z,19.75
2022-12-01T03:41:16.642Z,21.67
2022-12-01T03:44:24.655Z,22.35
2022-12-01T03:47:32.291Z,16.93
2022-12-01T03:50:59.552Z,21.60
2022-12-01T03:54:16.474Z,21.00
2022-12-01T03:57:27.002Z,19.80
2022-12-01T04:00:34.125Z,18.97
2022-12-01T04:03:37.720Z,21.42
2022-12-01T04:06:43.014Z,21.33
2022-12-01T04:09:46.106Z,21.60
2022-12-01T04:12:49.410Z,21.05
2022-12-01T04:15:53.843Z,22.73
2022-12-01T04:18:56.909Z,19.37
2022-12-01T04:22:00.483Z,22.67
2022-12-01T04:25:05.100Z,24.10
2022-12-01T04:28:08.079Z,23.08
2022-12-01T04:31:10.765Z,20.37
2022-12-01T04:34:13.954Z,26.27
2022-12-01T04:37:17.373Z,23.95
2022-12-01T04:40:21.741Z,24.37
2022-12-01T04:43:25.402Z,21.63
2022-12-01T04:46:30.264Z,22.80
2022-12-01T04:49:33.813Z,23.42
2022-12-01T04:52:38.268Z,24.08
2022-12-01T04:55:41.499Z,23.00
2022-12-01T04:58:45.155Z,24.17
2022-12-01T05:01:48.333Z,25.58
2022-12-01T05:04:51.653Z,29.37
2022-12-01T05:07:54.507Z,40.17
2022-12-01T05:11:08.041Z,130.35
2022-12-01T05:14:11.773Z,110.70
2022-12-01T05:17:15.619Z,74.47
2022-12-01T05:20:42.257Z,40.30
2022-12-01T05:23:46.055Z,51.37
2022-12-01T05:26:49.461Z,46.25
2022-12-01T05:29:53.140Z,39.10
2022-12-01T05:32:58.217Z,36.92
2022-12-01T05:36:02.785Z,31.50
2022-12-01T05:39:08.630Z,27.60
2022-12-01T05:42:12.556Z,26.43
2022-12-01T05:45:18.093Z,29.98
2022-12-01T05:48:21.994Z,28.10
2022-12-01T05:51:24.909Z,28.25
2022-12-01T05:54:30.123Z,30.48
2022-12-01T05:57:34.299Z,27.60
2022-12-01T06:00:45.436Z,26.23
2022-12-01T06:03:50.840Z,27.60
2022-12-01T06:06:53.607Z,25.45
2022-12-01T06:09:58.055Z,24.33
2022-12-01T06:13:00.738Z,29.60
2022-12-01T06:16:07.017Z,32.20
2022-12-01T06:19:10.570Z,29.45
2022-12-01T06:22:14.188Z,29.67
2022-12-01T06:25:21.918Z,31.47
2022-12-01T06:28:28.566Z,34.65
2022-12-01T06:31:31.580Z,26.55
2022-12-01T06:34:39.264Z,33.72
2022-12-01T06:37:45.005Z,28.60
2022-12-01T06:40:51.379Z,31.45
2022-12-01T06:43:54.907Z,31.33
2022-12-01T06:46:58.057Z,35.00
2022-12-01T06:50:10.069Z,36.75
2022-12-01T06:53:15.285Z,31.23
2022-12-01T06:56:18.399Z,43.17
2022-12-01T06:59:22.416Z,37.95
2022-12-01T07:02:25.900Z,33.95
2022-12-01T07:05:29.549Z,46.43
2022-12-01T07:08:33.770Z,37.88
2022-12-01T07:11:39.351Z,39.20
2022-12-01T07:14:42.665Z,31.35
2022-12-01T07:17:45.924Z,34.50
2022-12-01T07:20:50.298Z,33.93
2022-12-01T07:23:54.884Z,32.77
2022-12-01T07:26:58.427Z,34.13
2022-12-01T07:30:02.066Z,35.00
2022-12-01T07:33:05.688Z,31.90
2022-12-01T07:36:11.738Z,33.23
2022-12-01T07:39:14.847Z,30.70
2022-12-01T07:42:18.837Z,28.77
2022-12-01T07:45:22.556Z,29.63
2022-12-01T07:48:26.861Z,29.02
2022-12-01T07:51:30.845Z,41.03
2022-12-01T07:54:34.000Z,29.47
2022-12-01T07:57:41.264Z,30.88
2022-12-01T08:00:45.880Z,28.67
2022-12-01T08:03:51.078Z,32.33
2022-12-01T08:06:55.494Z,28.23
2022-12-01T08:10:06.602Z,28.43
2022-12-01T08:13:16.945Z,27.15
2022-12-01T08:16:26.074Z,25.12
2022-12-01T08:19:29.664Z,37.03
2022-12-01T08:22:36.052Z,39.93
2022-12-01T08:25:39.610Z,36.70
2022-12-01T08:28:44.488Z,45.33
2022-12-01T08:31:48.126Z,37.60
2022-12-01T08:34:53.830Z,45.47
2022-12-01T08:37:57.570Z,41.73
2022-12-01T08:41:05.300Z,55.23
2022-12-01T08:44:10.763Z,51.97
2022-12-01T08:47:23.993Z,40.83
2022-12-01T08:50:28.610Z,44.83
2022-12-01T08:53:35.550Z,43.17
2022-12-01T08:56:42.227Z,36.37
2022-12-01T08:59:46.119Z,40.83
2022-12-01T09:02:49.469Z,42.80
2022-12-01T09:05:52.879Z,42.25
2022-12-01T09:08:56.621Z,38.87
2022-12-01T09:11:59.577Z,37.10
2022-12-01T09:15:02.818Z,40.67
2022-12-01T09:18:16.007Z,36.15
2022-12-01T09:21:34.245Z,40.40
2022-12-01T09:24:38.420Z,41.17
2022-12-01T09:27:41.189Z,36.43
2022-12-01T09:30:46.339Z,33.88
2022-12-01T09:33:59.120Z,37.17
2022-12-01T09:37:03.042Z,35.67
2022-12-01T09:40:07.303Z,41.13
2022-12-01T09:43:18.597Z,38.53
2022-12-01T09:46:34.650Z,38.90
2022-12-01T09:49:54.113Z,44.13
2022-12-01T09:53:10.207Z,32.40
2022-12-01T09:56:37.835Z,34.13
2022-12-01T09:59:45.284Z,36.27
2022-12-01T10:03:08.405Z,29.95
2022-12-01T10:06:28.445Z,33.28
2022-12-01T10:09:54.716Z,29.20
2022-12-01T10:12:58.103Z,29.63
2022-12-01T10:16:21.932Z,31.83
2022-12-01T10:20:07.034Z,28.92
2022-12-01T10:23:32.371Z,31.42
2022-12-01T10:27:02.874Z,25.40
2022-12-01T10:30:10.080Z,29.80
2022-12-01T10:33:35.963Z,25.73
2022-12-01T10:36:39.129Z,25.17
2022-12-01T10:39:44.892Z,21.95
2022-12-01T10:42:49.564Z,23.07
2022-12-01T10:45:54.727Z,22.42
2022-12-01T10:49:00.217Z,20.77
2022-12-01T10:52:05.224Z,22.33
2022-12-01T10:55:23.693Z,22.08
2022-12-01T10:58:27.603Z,21.03
2022-12-01T11:01:36.024Z,19.37
2022-12-01T11:04:45.327Z,19.37
2022-12-01T11:07:53.234Z,17.92
2022-12-01T11:10:58.698Z,20.60
2022-12-01T11:14:06.248Z,18.27
2022-12-01T11:17:31.151Z,16.45
2022-12-01T11:20:37.377Z,19.00
2022-12-01T11:23:52.009Z,18.25
2022-12-01T11:26:58.643Z,17.83
2022-12-01T11:30:06.921Z,16.23
2022-12-01T11:33:15.590Z,17.12
2022-12-01T11:36:42.641Z,16.48
2022-12-01T11:39:48.735Z,16.02
2022-12-01T11:43:00.247Z,16.75
2022-12-01T11:46:08.184Z,12.57
2022-12-01T11:49:22.907Z,11.57
2022-12-01T11:52:46.481Z,11.60
2022-12-01T11:55:52.982Z,13.93
2022-12-01T11:59:02.155Z,13.35
2022-12-01T12:02:10.328Z,16.87
2022-12-01T12:05:42.551Z,10.40
2022-12-01T12:09:17.936Z,13.93
2022-12-01T12:12:56.370Z,15.60
2022-12-01T12:16:30.412Z,14.25
2022-12-01T12:20:21.109Z,15.50
2022-12-01T12:23:30.130Z,15.57
2022-12-01T12:26:58.619Z,14.63
2022-12-01T12:30:29.794Z,14.60
2022-12-01T12:33:56.058Z,16.27
2022-12-01T12:37:32.163Z,14.87
2022-12-01T12:40:38.921Z,13.82
2022-12-01T12:44:06.472Z,12.45
2022-12-01T12:47:19.149Z,12.77
2022-12-01T12:50:30.057Z,14.07
2022-12-01T12:53:46.084Z,15.67
2022-12-01T12:56:55.645Z,13.02
2022-12-01T13:00:04.891Z,13.43
2022-12-01T13:03:29.214Z,14.63
2022-12-01T13:06:52.281Z,17.42
2022-12-01T13:10:29.241Z,15.30
2022-12-01T13:13:45.185Z,14.32
2022-12-01T13:16:59.947Z,13.70
2022-12-01T13:20:07.028Z,16.52
2022-12-01T13:23:16.915Z,14.70
2022-12-01T13:26:22.239Z,16.57
2022-12-01T13:29:27.221Z,16.27
2022-12-01T13:32:41.176Z,16.10
2022-12-01T13:36:15.462Z,17.45
2022-12-01T13:39:23.241Z,15.27
2022-12-01T13:42:45.060Z,22.23
2022-12-01T13:45:49.833Z,16.70
2022-12-01T13:48:58.006Z,17.12
2022-12-01T13:52:27.010Z,17.40
2022-12-01T13:55:31.271Z,16.80
2022-12-01T13:58:34.598Z,17.73
2022-12-01T14:01:49.350Z,19.83
2022-12-01T14:04:54.343Z,18.83
2022-12-01T14:07:58.660Z,20.92
2022-12-01T14:11:18.794Z,22.92
2022-12-01T14:14:26.380Z,18.97
2022-12-01T14:17:37.223Z,18.33
2022-12-01T14:20:48.016Z,21.40
2022-12-01T14:24:11.925Z,18.75
2022-12-01T14:27:43.371Z,18.98
2022-12-01T14:30:51.962Z,18.70
2022-12-01T14:34:13.163Z,19.73
2022-12-01T14:37:25.047Z,19.77
2022-12-01T14:40:30.591Z,19.30
2022-12-01T14:43:58.043Z,21.60
2022-12-01T14:47:09.951Z,19.67
2022-12-01T14:50:28.539Z,19.55
2022-12-01T14:53:36.088Z,22.15
2022-12-01T14:56:43.076Z,22.02
2022-12-01T14:59:50.502Z,21.83
2022-12-01T15:03:00.173Z,20.77
2022-12-01T15:06:06.005Z,21.60
2022-12-01T15:12:39.085Z,41.45
2022-12-01T15:15:53.275Z,43.30
2022-12-01T15:18:59.066Z,35.93
2022-12-01T15:22:20.256Z,45.33
2022-12-01T15:25:30.902Z,47.65
2022-12-01T15:28:36.616Z,44.92
2022-12-01T15:31:42.951Z,35.53
2022-12-01T15:34:56.956Z,41.53
2022-12-01T15:38:18.302Z,37.97
2022-12-01T15:41:29.684Z,38.88
2022-12-01T15:44:42.330Z,38.40
2022-12-01T15:47:53.023Z,37.95
2022-12-01T15:51:25.997Z,34.70
2022-12-01T15:54:31.155Z,43.50
2022-12-01T15:57:35.273Z,43.28
2022-12-01T16:00:39.905Z,46.67
2022-12-01T16:04:10.008Z,48.42
2022-12-01T16:07:23.934Z,56.53
2022-12-01T16:10:43.308Z,57.00
2022-12-01T16:14:09.017Z,54.50
2022-12-01T16:17:18.998Z,56.63
2022-12-01T16:20:32.000Z,55.55
2022-12-01T16:23:39.021Z,62.07
2022-12-01T16:27:10.056Z,60.47
2022-12-01T16:30:28.948Z,63.90
2022-12-01T16:33:42.197Z,75.72
2022-12-01T16:36:54.024Z,92.15
2022-12-01T16:40:06.017Z,95.27
2022-12-01T16:43:16.177Z,90.72
2022-12-01T16:46:26.667Z,89.37
2022-12-01T16:49:35.002Z,90.35
2022-12-01T16:52:47.217Z,91.78
2022-12-01T16:55:57.142Z,90.43
2022-12-01T16:59:09.005Z,87.90
2022-12-01T17:02:19.238Z,84.35
2022-12-01T17:05:25.121Z,92.80
2022-12-01T17:08:32.243Z,84.53
2022-12-01T17:11:35.916Z,89.67
2022-12-01T17:14:39.297Z,82.60
2022-12-01T17:17:46.012Z,77.32
2022-12-01T17:21:07.086Z,87.37
2022-12-01T17:24:21.259Z,77.90
2022-12-01T17:27:30.974Z,76.67
2022-12-01T17:30:49.248Z,78.62
2022-12-01T17:34:03.016Z,69.70
2022-12-01T17:37:06.903Z,74.72
2022-12-01T17:40:20.031Z,75.60
2022-12-01T17:43:26.219Z,79.17
2022-12-01T17:46:31.650Z,70.12
2022-12-01T17:49:48.914Z,76.55
2022-12-01T17:52:55.103Z,82.07
2022-12-01T17:56:22.869Z,80.57
2022-12-01T17:59:27.671Z,81.43
2022-12-01T18:02:31.282Z,81.30
2022-12-01T18:05:36.109Z,82.25
2022-12-01T18:08:49.115Z,80.53
2022-12-01T18:11:58.701Z,80.95
2022-12-01T18:15:13.716Z,77.13
2022-12-01T18:18:29.082Z,79.03
2022-12-01T18:21:45.203Z,75.68
2022-12-01T18:24:57.900Z,87.03
2022-12-01T18:28:18.009Z,83.83
2022-12-01T18:31:24.281Z,82.40
2022-12-01T18:34:33.966Z,77.35
2022-12-01T18:37:40.982Z,82.25
2022-12-01T18:40:53.991Z,84.00
2022-12-01T18:44:12.055Z,77.60
2022-12-01T18:47:20.266Z,86.72
2022-12-01T18:50:24.157Z,79.75
2022-12-01T18:53:34.865Z,92.18
2022-12-01T18:56:59.101Z,83.43
2022-12-01T19:00:15.945Z,95.67
2022-12-01T19:03:33.046Z,96.65
2022-12-01T19:06:43.068Z,102.18
2022-12-01T19:09:55.154Z,100.75
2022-12-01T19:13:13.021Z,93.18
2022-12-01T19:16:24.115Z,98.57
2022-12-01T19:19:38.024Z,91.78
2022-12-01T19:22:52.918Z,95.55
2022-12-01T19:25:58.909Z,89.65
2022-12-01T19:29:08.005Z,90.25
2022-12-01T19:32:16.007Z,96.20
2022-12-01T19:35:28.984Z,98.03
2022-12-01T19:38:41.966Z,88.82
2022-12-01T19:41:47.981Z,92.20
2022-12-01T19:45:01.888Z,95.75
2022-12-01T19:48:08.485Z,96.13
2022-12-01T19:51:27.005Z,100.05
2022-12-01T19:54:42.149Z,92.22
2022-12-01T19:57:53.942Z,94.60
2022-12-01T20:01:18.503Z,99.68
2022-12-01T20:04:24.118Z,96.03
2022-12-01T20:07:40.150Z,103.72
2022-12-01T20:11:04.484Z,100.95
2022-12-01T20:14:10.986Z,102.22
2022-12-01T20:17:16.531Z,101.53
2022-12-01T20:20:30.034Z,98.07
2022-12-01T20:23:35.892Z,96.68
2022-12-01T20:26:52.156Z,103.05
2022-12-01T20:30:06.852Z,102.28
2022-12-01T20:33:13.306Z,106.72
2022-12-01T20:36:23.981Z,106.73
2022-12-01T20:39:27.992Z,108.18
2022-12-01T20:42:39.794Z,106.05
2022-12-01T20:45:52.275Z,101.40
2022-12-01T20:49:05.966Z,103.62
2022-12-01T20:52:17.978Z,98.83
2022-12-01T20:55:21.974Z,102.40
2022-12-01T20:58:26.105Z,101.53
2022-12-01T21:01:36.022Z,95.07
2022-12-01T21:04:42.284Z,97.37
2022-12-01T21:07:47.229Z,104.33
2022-12-01T21:10:51.985Z,94.28
2022-12-01T21:13:55.516Z,97.28
2022-12-01T21:17:12.047Z,87.28
2022-12-01T21:20:34.965Z,88.00
2022-12-01T21:23:39.150Z,98.12
2022-12-01T21:27:00.184Z,85.60
2022-12-01T21:30:21.002Z,84.55
2022-12-01T21:33:34.273Z,90.43
2022-12-01T21:36:37.925Z,76.20
2022-12-01T21:39:41.031Z,76.07
2022-12-01T21:42:45.963Z,81.45
2022-12-01T21:45:54.094Z,71.85
2022-12-01T21:48:58.531Z,65.45
2022-12-01T21:52:13.962Z,71.00
2022-12-01T21:55:18.214Z,60.67
2022-12-01T21:58:28.992Z,61.58
2022-12-01T22:01:35.004Z,66.60
2022-12-01T22:04:37.982Z,64.78
2022-12-01T22:07:46.097Z,63.90
2022-12-01T22:11:03.440Z,67.15
2022-12-01T22:14:18.934Z,64.57
2022-12-01T22:17:25.245Z,66.60
2022-12-01T22:20:28.730Z,78.40
2022-12-01T22:23:35.120Z,85.47
2022-12-01T22:26:41.540Z,83.82
2022-12-01T22:29:47.358Z,89.32
2022-12-01T22:32:58.646Z,88.37
2022-12-01T22:36:01.436Z,78.95
2022-12-01T22:39:25.966Z,76.35
2022-12-01T22:42:33.038Z,75.80
2022-12-01T22:45:36.122Z,75.68
2022-12-01T22:48:43.699Z,82.72
2022-12-01T22:52:07.082Z,76.47
2022-12-01T22:55:15.838Z,81.85
2022-12-01T22:58:27.955Z,75.12
2022-12-01T23:01:34.012Z,73.37
2022-12-01T23:04:44.938Z,72.82
2022-12-01T23:07:48.762Z,81.00
2022-12-01T23:10:52.583Z,78.05
2022-12-01T23:13:56.861Z,83.15
2022-12-01T23:17:07.483Z,78.95
2022-12-01T23:20:19.946Z,75.80
2022-12-01T23:23:34.559Z,74.80
2022-12-01T23:26:38.222Z,82.78
2022-12-01T23:29:41.024Z,76.12
2022-12-01T23:32:44.796Z,77.05
2022-12-01T23:36:00.465Z,72.80
2022-12-01T23:39:10.919Z,81.47
2022-12-01T23:42:14.166Z,77.05
2022-12-01T23:45:27.990Z,73.10
2022-12-01T23:48:38.037Z,68.45
2022-12-01T23:51:51.560Z,76.37
2022-12-01T23:54:54.054Z,72.22
2022-12-01T23:57:59.055Z,70.87
